x

Sabine Pass, Tx (srst2) Weather Station

10:00pm - Thu 28th May 2015 All times are CDT. -5 hours from GMT.

  • Wind
    15mph, 18mph gusts
  • Air Temp 80°f
  • Sea Pressure 1016.6mb
  • Sabine Pass, Tx
  • Sabine Pass, Tx

More Historic Weather Station data

Upgrade to MSW Pro to gain access to the past 30 days of data for over 8000 Wavebouys and Weather Stations around the globe.

Join Pro

Comparision Forecast

View Surf forecast
   
Thu 05/28 10:00pm 15 18 mph 1016.6mb 80f
9:00pm 13 15 mph 1016mb 80f
8:00pm 8 9 mph 1016mb 80f
7:00pm 9 11 mph 1015.6mb 81f
6:00pm 8 11 mph 1016.8mb 82f
5:00pm 7 9 mph 1017.5mb 81f
4:00pm 8 10 mph 1017.8mb 82f
3:00pm 8 9 mph 1018.3mb 81f
2:00pm 8 10 mph 1018.9mb 81f
1:00pm 8 10 mph 1019.5mb 81f
12:00pm 9 11 mph 1019.7mb 80f
11:00am 8 10 mph 1019.3mb 80f
10:00am 9 11 mph 1018.9mb 80f
9:00am 9 10 mph 1019.3mb 79f
8:00am 8 9 mph 1019.3mb 78f
7:00am 5 7 mph 1019.1mb 77f
6:00am 6 8 mph 1018.6mb 77f
5:00am 8 9 mph 1018mb 77f
4:00am 8 9 mph 1017.9mb 77f
3:00am 7 8 mph 1017.7mb 77f
2:00am 8 9 mph 1018mb 77f
1:00am 7 8 mph 1018.8mb 77f
12:00am 7 8 mph 1019.1mb 78f
Wed 05/27 11:00pm 8 11 mph 1019.1mb 78f
10:00pm 7 9 mph 1019.1mb 78f
9:00pm 6 7 mph 1018.5mb 78f
8:00pm 9 11 mph 1018.3mb 78f
7:00pm 10 13 mph 1017.4mb 79f
6:00pm 11 13 mph 1017.4mb 81f
5:00pm 7 8 mph 1017.8mb 82f
4:00pm 8 10 mph 1018.1mb 83f
3:00pm 5 7 mph 1018.2mb 83f
2:00pm 5 7 mph 1018.7mb 81f
1:00pm 13 16 mph 1018.8mb 79f
12:00pm 10 13 mph 1018.7mb 79f
11:00am 13 15 mph 1019.3mb 70f
10:00am 9 11 mph 1021.4mb 69f
9:00am 8 10 mph 1022.2mb 67f
8:00am 14 16 mph 1021.2mb 66f
7:00am 16 21 mph 1020.5mb -
6:00am 9 10 mph 1018.6mb 79f
5:00am 10 13 mph 1016.6mb 79f
4:00am 9 10 mph 1017.1mb 79f
3:00am 11 14 mph 1017.7mb 79f
2:00am 15 21 mph 1017.2mb 79f
1:00am 16 20 mph 1017.6mb 79f
12:00am 15 18 mph 1017.4mb 79f
Tue 05/26 11:00pm 14 17 mph 1018mb 79f
10:00pm 15 17 mph 1018.2mb 80f
9:00pm 14 17 mph 1017.3mb 80f
8:00pm 16 21 mph 1016.7mb 80f
7:00pm 14 18 mph 1016.6mb 80f
6:00pm 15 18 mph 1016.7mb 80f
5:00pm 13 17 mph 1017.3mb 80f
4:00pm 11 14 mph 1017.8mb 80f
3:00pm 13 15 mph 1018.2mb 80f
2:00pm 15 17 mph 1018.2mb 80f
1:00pm 11 14 mph 1018.2mb 80f
12:00pm 13 18 mph 1018mb 79f
11:00am 13 17 mph 1017.7mb 78f
10:00am 16 20 mph 1017.2mb 77f
9:00am 15 18 mph 1017.4mb 75f
8:00am 13 18 mph 1017.1mb 73f
7:00am 8 10 mph 1016.7mb 69f
6:00am 9 11 mph 1016.7mb 67f
5:00am 10 14 mph 1016.6mb 66f
4:00am 10 14 mph 1017.6mb 67f
3:00am 10 11 mph 1018.4mb 66f
2:00am 7
mph
1018.6mb 65f
1:00am  -  1 mph 1020.1mb 65f
12:00am 13 16 mph 1019.1mb -
Mon 05/25 11:00pm 10 14 mph 1016.3mb 81f
10:00pm 17 22 mph 1014.6mb 80f
9:00pm 16 18 mph 1013.7mb 81f
8:00pm 16 18 mph 1013.6mb 81f
7:00pm 18 24 mph 1012.5mb 81f
6:00pm 20 23 mph 1012mb 81f
5:00pm 21 24 mph 1012.3mb 81f
4:00pm 23 26 mph 1013.2mb 81f
3:00pm 16 22 mph 1014mb 82f
2:00pm 15 20 mph 1015.3mb 82f
1:00pm 13 16 mph 1016.1mb 81f
12:00pm 15 20 mph 1016.4mb 81f
11:00am 16 20 mph 1016.4mb 81f
10:00am 16 20 mph 1016.3mb 80f
9:00am 14 18 mph 1016.1mb 80f
8:00am 14 18 mph 1016mb 79f
7:00am 11 14 mph 1015.5mb 78f
6:00am 9 11 mph 1015mb 77f
5:00am 9 11 mph 1014.7mb 77f